sensor_id;sensor_type;location;lat;lon;timestamp;temperature;humidity
33717;DHT22;20046;50.746;7.072;2023-02-01T00:00:23;6.40;99.90
33717;DHT22;20046;50.746;7.072;2023-02-01T00:02:48;6.40;99.90
33717;DHT22;20046;50.746;7.072;2023-02-01T00:05:14;6.30;99.90
33717;DHT22;20046;50.746;7.072;2023-02-01T00:07:39;6.40;99.90
33717;DHT22;20046;50.746;7.072;2023-02-01T00:10:06;6.30;99.90
33717;DHT22;20046;50.746;7.072;2023-02-01T00:12:32;6.30;99.90
33717;DHT22;20046;50.746;7.072;2023-02-01T00:14:58;6.20;99.90
33717;DHT22;20046;50.746;7.072;2023-02-01T00:17:24;6.20;99.90
33717;DHT22;20046;50.746;7.072;2023-02-01T00:19:50;6.10;99.90
33717;DHT22;20046;50.746;7.072;2023-02-01T00:22:15;6.00;99.90
33717;DHT22;20046;50.746;7.072;2023-02-01T00:24:41;6.00;99.90
33717;DHT22;20046;50.746;7.072;2023-02-01T00:27:06;6.10;99.90
33717;DHT22;20046;50.746;7.072;2023-02-01T00:29:32;6.10;99.90
33717;DHT22;20046;50.746;7.072;2023-02-01T00:31:58;6.10;99.90
33717;DHT22;20046;50.746;7.072;2023-02-01T00:34:23;6.10;99.90
33717;DHT22;20046;50.746;7.072;2023-02-01T00:36:49;6.10;99.90
33717;DHT22;20046;50.746;7.072;2023-02-01T00:39:15;6.20;99.90
33717;DHT22;20046;50.746;7.072;2023-02-01T00:41:41;6.30;99.90
33717;DHT22;20046;50.746;7.072;2023-02-01T00:44:07;6.30;99.90
33717;DHT22;20046;50.746;7.072;2023-02-01T00:46:32;6.30;99.90
33717;DHT22;20046;50.746;7.072;2023-02-01T00:48:58;6.40;99.90
33717;DHT22;20046;50.746;7.072;2023-02-01T00:51:27;6.30;99.90
33717;DHT22;20046;50.746;7.072;2023-02-01T00:53:53;6.40;99.90
33717;DHT22;20046;50.746;7.072;2023-02-01T00:56:19;6.40;99.90
33717;DHT22;20046;50.746;7.072;2023-02-01T00:58:45;6.40;99.90
33717;DHT22;20046;50.746;7.072;2023-02-01T01:01:16;6.50;99.90
33717;DHT22;20046;50.746;7.072;2023-02-01T01:03:45;6.50;99.90
33717;DHT22;20046;50.746;7.072;2023-02-01T01:06:15;6.60;99.90
33717;DHT22;20046;50.746;7.072;2023-02-01T01:08:42;6.60;99.90
33717;DHT22;20046;50.746;7.072;2023-02-01T01:11:14;6.60;99.90
33717;DHT22;20046;50.746;7.072;2023-02-01T01:13:40;6.60;99.90
33717;DHT22;20046;50.746;7.072;2023-02-01T01:16:07;6.50;99.90
33717;DHT22;20046;50.746;7.072;2023-02-01T01:18:34;6.60;99.90
33717;DHT22;20046;50.746;7.072;2023-02-01T01:20:59;6.60;99.90
33717;DHT22;20046;50.746;7.072;2023-02-01T01:23:26;6.60;99.90
33717;DHT22;20046;50.746;7.072;2023-02-01T01:25:51;6.60;99.90
33717;DHT22;20046;50.746;7.072;2023-02-01T01:28:17;6.50;99.90
33717;DHT22;20046;50.746;7.072;2023-02-01T01:30:43;6.50;99.90
33717;DHT22;20046;50.746;7.072;2023-02-01T01:33:09;6.50;99.90
33717;DHT22;20046;50.746;7.072;2023-02-01T01:35:35;6.50;99.90
33717;DHT22;20046;50.746;7.072;2023-02-01T01:38:01;6.50;99.90
33717;DHT22;20046;50.746;7.072;2023-02-01T01:40:29;6.40;99.90
33717;DHT22;20046;50.746;7.072;2023-02-01T01:42:56;6.40;99.90
33717;DHT22;20046;50.746;7.072;2023-02-01T01:47:57;6.40;99.90
33717;DHT22;20046;50.746;7.072;2023-02-01T01:50:29;6.40;99.90
33717;DHT22;20046;50.746;7.072;2023-02-01T01:52:58;6.40;99.90
33717;DHT22;20046;50.746;7.072;2023-02-01T01:55:26;6.40;99.90
33717;DHT22;20046;50.746;7.072;2023-02-01T01:57:59;6.30;99.90
33717;DHT22;20046;50.746;7.072;2023-02-01T02:00:26;6.30;99.90
33717;DHT22;20046;50.746;7.072;2023-02-01T02:03:03;6.40;99.90
33717;DHT22;20046;50.746;7.072;2023-02-01T02:05:32;6.40;99.90
33717;DHT22;20046;50.746;7.072;2023-02-01T02:07:59;6.40;99.90
33717;DHT22;20046;50.746;7.072;2023-02-01T02:10:28;6.40;99.90
33717;DHT22;20046;50.746;7.072;2023-02-01T02:13:14;6.40;99.90
33717;DHT22;20046;50.746;7.072;2023-02-01T02:15:49;6.30;99.90
33717;DHT22;20046;50.746;7.072;2023-02-01T02:18:27;6.30;99.90
33717;DHT22;20046;50.746;7.072;2023-02-01T02:26:49;6.30;99.90
33717;DHT22;20046;50.746;7.072;2023-02-01T02:32:51;6.30;99.90
33717;DHT22;20046;50.746;7.072;2023-02-01T02:40:51;6.30;99.90
33717;DHT22;20046;50.746;7.072;2023-02-01T02:43:23;6.30;99.90
33717;DHT22;20046;50.746;7.072;2023-02-01T02:46:24;6.30;99.90
33717;DHT22;20046;50.746;7.072;2023-02-01T02:49:27;6.40;99.90
33717;DHT22;20046;50.746;7.072;2023-02-01T02:52:06;6.40;99.90
33717;DHT22;20046;50.746;7.072;2023-02-01T02:54:54;6.40;99.90
33717;DHT22;20046;50.746;7.072;2023-02-01T02:57:29;6.30;99.90
33717;DHT22;20046;50.746;7.072;2023-02-01T03:00:17;6.30;99.90
33717;DHT22;20046;50.746;7.072;2023-02-01T03:03:03;6.30;99.90
33717;DHT22;20046;50.746;7.072;2023-02-01T03:05:49;6.30;99.90
33717;DHT22;20046;50.746;7.072;2023-02-01T03:08:23;6.30;99.90
33717;DHT22;20046;50.746;7.072;2023-02-01T03:13:36;6.30;99.90
33717;DHT22;20046;50.746;7.072;2023-02-01T03:16:15;6.30;99.90
33717;DHT22;20046;50.746;7.072;2023-02-01T03:18:51;6.40;99.90
33717;DHT22;20046;50.746;7.072;2023-02-01T03:21:28;6.40;99.90
33717;DHT22;20046;50.746;7.072;2023-02-01T03:24:00;6.40;99.90
33717;DHT22;20046;50.746;7.072;2023-02-01T03:26:29;6.40;99.90
33717;DHT22;20046;50.746;7.072;2023-02-01T03:29:00;6.40;99.90
33717;DHT22;20046;50.746;7.072;2023-02-01T03:31:28;6.30;99.90
33717;DHT22;20046;50.746;7.072;2023-02-01T03:33:54;6.30;99.90
33717;DHT22;20046;50.746;7.072;2023-02-01T03:36:30;6.30;99.90
33717;DHT22;20046;50.746;7.072;2023-02-01T03:41:44;6.30;99.90
33717;DHT22;20046;50.746;7.072;2023-02-01T03:44:18;6.30;99.90
33717;DHT22;20046;50.746;7.072;2023-02-01T03:49:38;6.30;99.90
33717;DHT22;20046;50.746;7.072;2023-02-01T03:52:07;6.30;99.90
33717;DHT22;20046;50.746;7.072;2023-02-01T03:54:35;6.40;99.90
33717;DHT22;20046;50.746;7.072;2023-02-01T03:57:05;6.40;99.90
33717;DHT22;20046;50.746;7.072;2023-02-01T03:59:32;6.40;99.90
33717;DHT22;20046;50.746;7.072;2023-02-01T04:01:57;6.50;99.90
33717;DHT22;20046;50.746;7.072;2023-02-01T04:04:23;6.50;99.90
33717;DHT22;20046;50.746;7.072;2023-02-01T04:06:50;6.50;99.90
33717;DHT22;20046;50.746;7.072;2023-02-01T04:09:16;6.50;99.90
33717;DHT22;20046;50.746;7.072;2023-02-01T04:11:41;6.50;99.90
33717;DHT22;20046;50.746;7.072;2023-02-01T04:14:07;6.50;99.90
33717;DHT22;20046;50.746;7.072;2023-02-01T04:16:33;6.50;99.90
33717;DHT22;20046;50.746;7.072;2023-02-01T04:18:59;6.40;99.90
33717;DHT22;20046;50.746;7.072;2023-02-01T04:21:25;6.40;99.90
33717;DHT22;20046;50.746;7.072;2023-02-01T04:23:52;6.40;99.90
33717;DHT22;20046;50.746;7.072;2023-02-01T04:26:18;6.30;99.90
33717;DHT22;20046;50.746;7.072;2023-02-01T04:28:45;6.30;99.90
33717;DHT22;20046;50.746;7.072;2023-02-01T04:31:13;6.20;99.90
33717;DHT22;20046;50.746;7.072;2023-02-01T04:33:39;6.20;99.90
33717;DHT22;20046;50.746;7.072;2023-02-01T04:36:04;6.10;99.90
33717;DHT22;20046;50.746;7.072;2023-02-01T04:38:30;6.00;99.90
33717;DHT22;20046;50.746;7.072;2023-02-01T04:40:57;6.00;99.90
33717;DHT22;20046;50.746;7.072;2023-02-01T04:43:23;5.90;99.90
33717;DHT22;20046;50.746;7.072;2023-02-01T04:45:49;5.90;99.90
33717;DHT22;20046;50.746;7.072;2023-02-01T04:48:16;5.90;99.90
33717;DHT22;20046;50.746;7.072;2023-02-01T04:50:43;5.90;99.90
33717;DHT22;20046;50.746;7.072;2023-02-01T04:53:11;5.90;99.90
33717;DHT22;20046;50.746;7.072;2023-02-01T04:55:36;5.90;99.90
33717;DHT22;20046;50.746;7.072;2023-02-01T04:58:02;6.00;99.90
33717;DHT22;20046;50.746;7.072;2023-02-01T05:00:28;6.10;99.90
33717;DHT22;20046;50.746;7.072;2023-02-01T05:02:53;6.10;99.90
33717;DHT22;20046;50.746;7.072;2023-02-01T05:05:19;6.10;99.90
33717;DHT22;20046;50.746;7.072;2023-02-01T05:07:46;6.10;99.90
33717;DHT22;20046;50.746;7.072;2023-02-01T05:10:12;6.00;99.90
33717;DHT22;20046;50.746;7.072;2023-02-01T05:12:37;6.00;99.90
33717;DHT22;20046;50.746;7.072;2023-02-01T05:15:21;5.90;99.90
33717;DHT22;20046;50.746;7.072;2023-02-01T05:17:47;5.90;99.90
33717;DHT22;20046;50.746;7.072;2023-02-01T05:20:13;5.80;99.90
33717;DHT22;20046;50.746;7.072;2023-02-01T05:22:38;5.80;99.90
33717;DHT22;20046;50.746;7.072;2023-02-01T05:25:04;5.70;99.90
33717;DHT22;20046;50.746;7.072;2023-02-01T05:27:30;5.70;99.90
33717;DHT22;20046;50.746;7.072;2023-02-01T05:29:56;5.70;99.90
33717;DHT22;20046;50.746;7.072;2023-02-01T05:32:22;5.60;99.90
33717;DHT22;20046;50.746;7.072;2023-02-01T05:34:47;5.60;99.90
33717;DHT22;20046;50.746;7.072;2023-02-01T05:37:13;5.60;99.90
33717;DHT22;20046;50.746;7.072;2023-02-01T05:39:38;5.50;99.90
33717;DHT22;20046;50.746;7.072;2023-02-01T05:42:04;5.50;99.90
33717;DHT22;20046;50.746;7.072;2023-02-01T05:44:29;5.40;99.90
33717;DHT22;20046;50.746;7.072;2023-02-01T05:46:55;5.40;99.90
33717;DHT22;20046;50.746;7.072;2023-02-01T05:49:20;5.30;99.90
33717;DHT22;20046;50.746;7.072;2023-02-01T05:51:46;5.30;99.90
33717;DHT22;20046;50.746;7.072;2023-02-01T05:54:12;5.20;99.90
33717;DHT22;20046;50.746;7.072;2023-02-01T05:56:37;5.20;99.90
33717;DHT22;20046;50.746;7.072;2023-02-01T05:59:03;5.20;99.90
33717;DHT22;20046;50.746;7.072;2023-02-01T06:01:28;5.20;99.90
33717;DHT22;20046;50.746;7.072;2023-02-01T06:03:54;5.20;99.90
33717;DHT22;20046;50.746;7.072;2023-02-01T06:06:20;5.20;99.90
33717;DHT22;20046;50.746;7.072;2023-02-01T06:08:45;5.20;99.90
33717;DHT22;20046;50.746;7.072;2023-02-01T06:11:11;5.20;99.90
33717;DHT22;20046;50.746;7.072;2023-02-01T06:13:36;5.20;99.90
33717;DHT22;20046;50.746;7.072;2023-02-01T06:16:04;5.20;99.90
33717;DHT22;20046;50.746;7.072;2023-02-01T06:18:32;5.10;99.90
33717;DHT22;20046;50.746;7.072;2023-02-01T06:20:59;5.10;99.90
33717;DHT22;20046;50.746;7.072;2023-02-01T06:23:26;5.20;99.90
33717;DHT22;20046;50.746;7.072;2023-02-01T06:25:52;5.10;99.90
33717;DHT22;20046;50.746;7.072;2023-02-01T06:28:18;5.10;99.90
33717;DHT22;20046;50.746;7.072;2023-02-01T06:30:44;5.20;99.90
33717;DHT22;20046;50.746;7.072;2023-02-01T06:33:13;5.10;99.90
33717;DHT22;20046;50.746;7.072;2023-02-01T06:35:43;5.20;99.90
33717;DHT22;20046;50.746;7.072;2023-02-01T06:38:10;5.20;99.90
33717;DHT22;20046;50.746;7.072;2023-02-01T06:40:37;5.20;99.90
33717;DHT22;20046;50.746;7.072;2023-02-01T06:43:02;5.10;99.90
33717;DHT22;20046;50.746;7.072;2023-02-01T06:45:28;5.00;99.90
33717;DHT22;20046;50.746;7.072;2023-02-01T06:47:53;5.00;99.90
33717;DHT22;20046;50.746;7.072;2023-02-01T06:50:19;4.90;99.90
33717;DHT22;20046;50.746;7.072;2023-02-01T06:52:45;4.90;99.90
33717;DHT22;20046;50.746;7.072;2023-02-01T06:55:11;4.90;99.90
33717;DHT22;20046;50.746;7.072;2023-02-01T06:57:37;5.00;99.90
33717;DHT22;20046;50.746;7.072;2023-02-01T07:00:06;5.10;99.90
33717;DHT22;20046;50.746;7.072;2023-02-01T07:02:31;5.10;99.90
33717;DHT22;20046;50.746;7.072;2023-02-01T07:04:57;5.20;99.90
33717;DHT22;20046;50.746;7.072;2023-02-01T07:07:22;5.20;99.90
33717;DHT22;20046;50.746;7.072;2023-02-01T07:09:49;5.30;99.90
33717;DHT22;20046;50.746;7.072;2023-02-01T07:12:15;5.20;99.90
33717;DHT22;20046;50.746;7.072;2023-02-01T07:14:40;5.20;99.90
33717;DHT22;20046;50.746;7.072;2023-02-01T07:17:06;5.20;99.90
33717;DHT22;20046;50.746;7.072;2023-02-01T07:19:32;5.20;99.90
33717;DHT22;20046;50.746;7.072;2023-02-01T07:21:58;5.20;99.90
33717;DHT22;20046;50.746;7.072;2023-02-01T07:24:23;5.20;99.90
33717;DHT22;20046;50.746;7.072;2023-02-01T07:26:49;5.20;99.90
33717;DHT22;20046;50.746;7.072;2023-02-01T07:29:19;5.20;99.90
33717;DHT22;20046;50.746;7.072;2023-02-01T07:31:46;5.20;99.90
33717;DHT22;20046;50.746;7.072;2023-02-01T07:34:11;5.20;99.90
33717;DHT22;20046;50.746;7.072;2023-02-01T07:36:37;5.30;99.90
33717;DHT22;20046;50.746;7.072;2023-02-01T07:39:03;5.30;99.90
33717;DHT22;20046;50.746;7.072;2023-02-01T07:41:29;5.30;99.90
33717;DHT22;20046;50.746;7.072;2023-02-01T07:43:55;5.30;99.90
33717;DHT22;20046;50.746;7.072;2023-02-01T07:46:21;5.50;99.90
33717;DHT22;20046;50.746;7.072;2023-02-01T07:48:46;5.50;99.90
33717;DHT22;20046;50.746;7.072;2023-02-01T07:51:14;5.60;99.90
33717;DHT22;20046;50.746;7.072;2023-02-01T07:53:41;5.70;99.90
33717;DHT22;20046;50.746;7.072;2023-02-01T07:56:15;5.80;99.90
33717;DHT22;20046;50.746;7.072;2023-02-01T07:58:41;5.80;99.90
33717;DHT22;20046;50.746;7.072;2023-02-01T08:01:17;5.90;99.90
33717;DHT22;20046;50.746;7.072;2023-02-01T08:03:56;5.90;99.90
33717;DHT22;20046;50.746;7.072;2023-02-01T08:06:23;6.00;99.90
33717;DHT22;20046;50.746;7.072;2023-02-01T08:08:49;6.00;99.90
33717;DHT22;20046;50.746;7.072;2023-02-01T08:11:15;6.10;99.90
33717;DHT22;20046;50.746;7.072;2023-02-01T08:13:42;6.10;99.90
33717;DHT22;20046;50.746;7.072;2023-02-01T08:16:09;6.10;99.90
33717;DHT22;20046;50.746;7.072;2023-02-01T08:18:36;6.20;99.90
33717;DHT22;20046;50.746;7.072;2023-02-01T08:21:09;6.20;99.90
33717;DHT22;20046;50.746;7.072;2023-02-01T08:23:36;6.20;99.90
33717;DHT22;20046;50.746;7.072;2023-02-01T08:26:07;6.30;99.90
33717;DHT22;20046;50.746;7.072;2023-02-01T08:28:32;6.30;99.90
33717;DHT22;20046;50.746;7.072;2023-02-01T08:30:58;6.40;99.90
33717;DHT22;20046;50.746;7.072;2023-02-01T08:33:24;6.40;99.90
33717;DHT22;20046;50.746;7.072;2023-02-01T08:35:50;6.50;99.90
33717;DHT22;20046;50.746;7.072;2023-02-01T08:38:15;6.50;99.90
33717;DHT22;20046;50.746;7.072;2023-02-01T08:40:41;6.50;99.90
33717;DHT22;20046;50.746;7.072;2023-02-01T08:43:07;6.50;99.90
33717;DHT22;20046;50.746;7.072;2023-02-01T08:45:33;6.60;99.90
33717;DHT22;20046;50.746;7.072;2023-02-01T08:47:59;6.80;99.90
33717;DHT22;20046;50.746;7.072;2023-02-01T08:50:25;6.90;99.90
33717;DHT22;20046;50.746;7.072;2023-02-01T08:52:51;6.90;99.90
33717;DHT22;20046;50.746;7.072;2023-02-01T08:55:17;7.00;99.90
33717;DHT22;20046;50.746;7.072;2023-02-01T08:57:43;7.00;99.90
33717;DHT22;20046;50.746;7.072;2023-02-01T09:00:12;7.00;99.90
33717;DHT22;20046;50.746;7.072;2023-02-01T09:02:38;7.10;99.90
33717;DHT22;20046;50.746;7.072;2023-02-01T09:05:05;7.10;99.90
33717;DHT22;20046;50.746;7.072;2023-02-01T09:07:32;7.10;99.90
33717;DHT22;20046;50.746;7.072;2023-02-01T09:09:58;7.00;99.90
33717;DHT22;20046;50.746;7.072;2023-02-01T09:12:27;7.10;99.90
33717;DHT22;20046;50.746;7.072;2023-02-01T09:14:54;7.10;99.90
33717;DHT22;20046;50.746;7.072;2023-02-01T09:17:20;7.20;99.90
33717;DHT22;20046;50.746;7.072;2023-02-01T09:19:45;7.30;99.90
33717;DHT22;20046;50.746;7.072;2023-02-01T09:22:11;7.30;99.90
33717;DHT22;20046;50.746;7.072;2023-02-01T09:24:36;7.30;99.90
33717;DHT22;20046;50.746;7.072;2023-02-01T09:27:02;7.30;99.90
33717;DHT22;20046;50.746;7.072;2023-02-01T09:29:28;7.40;99.90
33717;DHT22;20046;50.746;7.072;2023-02-01T09:31:53;7.50;99.90
33717;DHT22;20046;50.746;7.072;2023-02-01T09:34:19;7.60;99.90
33717;DHT22;20046;50.746;7.072;2023-02-01T09:36:45;7.60;99.90
33717;DHT22;20046;50.746;7.072;2023-02-01T09:39:10;7.70;99.90
33717;DHT22;20046;50.746;7.072;2023-02-01T09:44:36;7.60;99.90
33717;DHT22;20046;50.746;7.072;2023-02-01T09:47:03;7.50;99.90
33717;DHT22;20046;50.746;7.072;2023-02-01T09:49:36;7.40;99.90
33717;DHT22;20046;50.746;7.072;2023-02-01T09:52:05;7.40;99.90
33717;DHT22;20046;50.746;7.072;2023-02-01T09:54:44;7.40;99.90
33717;DHT22;20046;50.746;7.072;2023-02-01T09:57:40;7.50;99.90
33717;DHT22;20046;50.746;7.072;2023-02-01T10:00:16;7.50;99.90
33717;DHT22;20046;50.746;7.072;2023-02-01T10:02:43;7.60;99.90
33717;DHT22;20046;50.746;7.072;2023-02-01T10:05:15;7.80;99.90
33717;DHT22;20046;50.746;7.072;2023-02-01T10:10:39;8.10;99.90
33717;DHT22;20046;50.746;7.072;2023-02-01T10:26:18;8.40;99.90
33717;DHT22;20046;50.746;7.072;2023-02-01T10:28:50;8.40;99.90
33717;DHT22;20046;50.746;7.072;2023-02-01T10:31:17;8.80;99.90
33717;DHT22;20046;50.746;7.072;2023-02-01T10:33:52;9.40;99.90
33717;DHT22;20046;50.746;7.072;2023-02-01T10:36:29;9.60;99.90
33717;DHT22;20046;50.746;7.072;2023-02-01T10:39:00;9.80;99.90
33717;DHT22;20046;50.746;7.072;2023-02-01T10:41:33;9.90;99.90
33717;DHT22;20046;50.746;7.072;2023-02-01T10:44:00;10.40;99.90
33717;DHT22;20046;50.746;7.072;2023-02-01T10:46:29;10.90;99.90
33717;DHT22;20046;50.746;7.072;2023-02-01T10:48:56;11.30;99.90
33717;DHT22;20046;50.746;7.072;2023-02-01T10:51:36;11.60;99.90
33717;DHT22;20046;50.746;7.072;2023-02-01T10:54:18;12.50;99.90
33717;DHT22;20046;50.746;7.072;2023-02-01T10:56:46;13.50;99.90
33717;DHT22;20046;50.746;7.072;2023-02-01T10:59:20;14.00;99.90
33717;DHT22;20046;50.746;7.072;2023-02-01T11:01:47;14.50;99.90
33717;DHT22;20046;50.746;7.072;2023-02-01T11:04:18;14.30;99.90
33717;DHT22;20046;50.746;7.072;2023-02-01T11:06:47;13.40;99.90
33717;DHT22;20046;50.746;7.072;2023-02-01T11:09:21;12.90;99.90
33717;DHT22;20046;50.746;7.072;2023-02-01T11:14:19;13.20;99.90
33717;DHT22;20046;50.746;7.072;2023-02-01T11:16:50;13.10;99.90
33717;DHT22;20046;50.746;7.072;2023-02-01T11:19:18;12.60;99.90
33717;DHT22;20046;50.746;7.072;2023-02-01T11:21:44;12.60;99.90
33717;DHT22;20046;50.746;7.072;2023-02-01T11:24:26;12.70;99.90
33717;DHT22;20046;50.746;7.072;2023-02-01T11:27:01;12.30;99.90
33717;DHT22;20046;50.746;7.072;2023-02-01T11:29:35;11.50;99.90
33717;DHT22;20046;50.746;7.072;2023-02-01T11:32:02;10.90;99.90
33717;DHT22;20046;50.746;7.072;2023-02-01T11:34:43;10.40;99.90
33717;DHT22;20046;50.746;7.072;2023-02-01T11:37:21;10.30;99.90
33717;DHT22;20046;50.746;7.072;2023-02-01T11:39:58;10.40;99.90
33717;DHT22;20046;50.746;7.072;2023-02-01T11:42:25;10.50;99.90
33717;DHT22;20046;50.746;7.072;2023-02-01T11:44:51;10.40;99.90
33717;DHT22;20046;50.746;7.072;2023-02-01T11:47:41;10.30;99.90
33717;DHT22;20046;50.746;7.072;2023-02-01T11:50:17;10.50;99.90
33717;DHT22;20046;50.746;7.072;2023-02-01T12:01:09;10.40;99.90
33717;DHT22;20046;50.746;7.072;2023-02-01T12:12:25;9.50;99.90
33717;DHT22;20046;50.746;7.072;2023-02-01T12:31:33;8.70;99.90
33717;DHT22;20046;50.746;7.072;2023-02-01T12:34:24;8.70;99.90
33717;DHT22;20046;50.746;7.072;2023-02-01T12:39:56;8.60;99.90
33717;DHT22;20046;50.746;7.072;2023-02-01T12:46:04;8.60;99.90
33717;DHT22;20046;50.746;7.072;2023-02-01T12:48:40;8.80;99.90
33717;DHT22;20046;50.746;7.072;2023-02-01T12:51:13;8.90;99.90
33717;DHT22;20046;50.746;7.072;2023-02-01T12:53:43;8.90;99.90
33717;DHT22;20046;50.746;7.072;2023-02-01T12:56:14;8.90;99.90
33717;DHT22;20046;50.746;7.072;2023-02-01T12:58:45;8.90;99.90
33717;DHT22;20046;50.746;7.072;2023-02-01T13:01:20;8.80;99.90
33717;DHT22;20046;50.746;7.072;2023-02-01T13:11:44;8.90;99.90
33717;DHT22;20046;50.746;7.072;2023-02-01T13:16:44;9.00;99.90
33717;DHT22;20046;50.746;7.072;2023-02-01T13:19:27;9.00;99.90
33717;DHT22;20046;50.746;7.072;2023-02-01T13:22:02;9.00;99.90
33717;DHT22;20046;50.746;7.072;2023-02-01T13:27:05;8.80;99.90
33717;DHT22;20046;50.746;7.072;2023-02-01T13:29:31;8.80;99.90
33717;DHT22;20046;50.746;7.072;2023-02-01T13:43:04;8.40;99.90
33717;DHT22;20046;50.746;7.072;2023-02-01T13:45:34;8.40;99.90
33717;DHT22;20046;50.746;7.072;2023-02-01T13:48:04;8.30;99.90
33717;DHT22;20046;50.746;7.072;2023-02-01T13:50:36;8.30;99.90
33717;DHT22;20046;50.746;7.072;2023-02-01T13:55:40;8.20;99.90
33717;DHT22;20046;50.746;7.072;2023-02-01T13:58:13;8.10;99.90
33717;DHT22;20046;50.746;7.072;2023-02-01T14:00:41;8.10;99.90
33717;DHT22;20046;50.746;7.072;2023-02-01T14:03:15;8.10;99.90
33717;DHT22;20046;50.746;7.072;2023-02-01T14:08:12;8.10;99.90
33717;DHT22;20046;50.746;7.072;2023-02-01T14:10:50;8.10;99.90
33717;DHT22;20046;50.746;7.072;2023-02-01T14:13:32;8.10;99.90
33717;DHT22;20046;50.746;7.072;2023-02-01T14:23:42;8.20;99.90
33717;DHT22;20046;50.746;7.072;2023-02-01T14:26:10;8.20;99.90
33717;DHT22;20046;50.746;7.072;2023-02-01T14:28:49;8.20;99.90
33717;DHT22;20046;50.746;7.072;2023-02-01T14:42:22;8.30;99.90
33717;DHT22;20046;50.746;7.072;2023-02-01T14:44:49;8.40;99.90
33717;DHT22;20046;50.746;7.072;2023-02-01T15:00:56;8.60;99.90
33717;DHT22;20046;50.746;7.072;2023-02-01T15:06:24;8.60;99.90
33717;DHT22;20046;50.746;7.072;2023-02-01T15:08:55;8.60;99.90
33717;DHT22;20046;50.746;7.072;2023-02-01T15:11:21;8.50;99.90
33717;DHT22;20046;50.746;7.072;2023-02-01T15:13:52;8.50;99.90
33717;DHT22;20046;50.746;7.072;2023-02-01T15:16:21;8.50;99.90
33717;DHT22;20046;50.746;7.072;2023-02-01T15:18:48;8.50;99.90
33717;DHT22;20046;50.746;7.072;2023-02-01T15:21:22;8.50;99.90
33717;DHT22;20046;50.746;7.072;2023-02-01T15:23:48;8.50;99.90
33717;DHT22;20046;50.746;7.072;2023-02-01T15:26:30;8.50;99.90
33717;DHT22;20046;50.746;7.072;2023-02-01T15:28:57;8.50;99.90
33717;DHT22;20046;50.746;7.072;2023-02-01T15:31:38;8.50;99.90
33717;DHT22;20046;50.746;7.072;2023-02-01T15:34:04;8.50;99.90
33717;DHT22;20046;50.746;7.072;2023-02-01T15:36:30;8.50;99.90
33717;DHT22;20046;50.746;7.072;2023-02-01T15:39:22;8.50;99.90
33717;DHT22;20046;50.746;7.072;2023-02-01T15:41:56;8.50;99.90
33717;DHT22;20046;50.746;7.072;2023-02-01T15:44:37;8.50;99.90
33717;DHT22;20046;50.746;7.072;2023-02-01T15:47:10;8.60;99.90
33717;DHT22;20046;50.746;7.072;2023-02-01T15:49:40;8.60;99.90
33717;DHT22;20046;50.746;7.072;2023-02-01T15:52:18;8.50;99.90
33717;DHT22;20046;50.746;7.072;2023-02-01T15:54:48;8.50;99.90
33717;DHT22;20046;50.746;7.072;2023-02-01T15:57:24;8.40;99.90
33717;DHT22;20046;50.746;7.072;2023-02-01T16:00:00;8.40;99.90
33717;DHT22;20046;50.746;7.072;2023-02-01T16:02:36;8.40;99.90
33717;DHT22;20046;50.746;7.072;2023-02-01T16:05:04;8.30;99.90
33717;DHT22;20046;50.746;7.072;2023-02-01T16:07:33;8.20;99.90
33717;DHT22;20046;50.746;7.072;2023-02-01T16:10:01;8.20;99.90
33717;DHT22;20046;50.746;7.072;2023-02-01T16:15:04;8.00;99.90
33717;DHT22;20046;50.746;7.072;2023-02-01T16:17:31;7.90;99.90
33717;DHT22;20046;50.746;7.072;2023-02-01T16:19:57;7.90;99.90
33717;DHT22;20046;50.746;7.072;2023-02-01T16:22:23;7.90;99.90
33717;DHT22;20046;50.746;7.072;2023-02-01T16:24:49;7.80;99.90
33717;DHT22;20046;50.746;7.072;2023-02-01T16:27:15;7.80;99.90
33717;DHT22;20046;50.746;7.072;2023-02-01T16:29:40;7.70;99.90
33717;DHT22;20046;50.746;7.072;2023-02-01T16:32:08;7.70;99.90
33717;DHT22;20046;50.746;7.072;2023-02-01T16:34:36;7.70;99.90
33717;DHT22;20046;50.746;7.072;2023-02-01T16:37:03;7.60;99.90
33717;DHT22;20046;50.746;7.072;2023-02-01T16:39:28;7.50;99.90
33717;DHT22;20046;50.746;7.072;2023-02-01T16:41:55;7.50;99.90
33717;DHT22;20046;50.746;7.072;2023-02-01T16:44:20;7.40;99.90
33717;DHT22;20046;50.746;7.072;2023-02-01T16:46:47;7.30;99.90
33717;DHT22;20046;50.746;7.072;2023-02-01T16:49:19;7.30;99.90
33717;DHT22;20046;50.746;7.072;2023-02-01T16:51:46;7.20;99.90
33717;DHT22;20046;50.746;7.072;2023-02-01T16:54:12;7.10;99.90
33717;DHT22;20046;50.746;7.072;2023-02-01T16:56:38;7.10;99.90
33717;DHT22;20046;50.746;7.072;2023-02-01T16:59:06;7.10;99.90
33717;DHT22;20046;50.746;7.072;2023-02-01T17:01:34;7.10;99.90
33717;DHT22;20046;50.746;7.072;2023-02-01T17:03:59;7.00;99.90
33717;DHT22;20046;50.746;7.072;2023-02-01T17:06:26;7.00;99.90
33717;DHT22;20046;50.746;7.072;2023-02-01T17:08:54;6.90;99.90
33717;DHT22;20046;50.746;7.072;2023-02-01T17:11:20;6.90;99.90
33717;DHT22;20046;50.746;7.072;2023-02-01T17:13:46;6.80;99.90
33717;DHT22;20046;50.746;7.072;2023-02-01T17:18:46;6.80;99.90
33717;DHT22;20046;50.746;7.072;2023-02-01T17:21:13;6.80;99.90
33717;DHT22;20046;50.746;7.072;2023-02-01T17:23:38;6.70;99.90
33717;DHT22;20046;50.746;7.072;2023-02-01T17:26:07;6.70;99.90
33717;DHT22;20046;50.746;7.072;2023-02-01T17:28:33;6.70;99.90
33717;DHT22;20046;50.746;7.072;2023-02-01T17:30:59;6.70;99.90
33717;DHT22;20046;50.746;7.072;2023-02-01T17:33:29;6.70;99.90
33717;DHT22;20046;50.746;7.072;2023-02-01T17:35:55;6.70;99.90
33717;DHT22;20046;50.746;7.072;2023-02-01T17:38:22;6.70;99.90
33717;DHT22;20046;50.746;7.072;2023-02-01T17:40:47;6.70;99.90
33717;DHT22;20046;50.746;7.072;2023-02-01T17:43:23;6.70;99.90
33717;DHT22;20046;50.746;7.072;2023-02-01T17:45:51;6.70;99.90
33717;DHT22;20046;50.746;7.072;2023-02-01T17:48:21;6.70;99.90
33717;DHT22;20046;50.746;7.072;2023-02-01T17:50:49;6.70;99.90
33717;DHT22;20046;50.746;7.072;2023-02-01T17:53:17;6.60;99.90
33717;DHT22;20046;50.746;7.072;2023-02-01T17:55:45;6.60;99.90
33717;DHT22;20046;50.746;7.072;2023-02-01T17:58:13;6.60;99.90
33717;DHT22;20046;50.746;7.072;2023-02-01T18:00:39;6.60;99.90
33717;DHT22;20046;50.746;7.072;2023-02-01T18:03:06;6.60;99.90
33717;DHT22;20046;50.746;7.072;2023-02-01T18:05:41;6.70;99.90
33717;DHT22;20046;50.746;7.072;2023-02-01T18:08:08;6.60;99.90
33717;DHT22;20046;50.746;7.072;2023-02-01T18:10:34;6.70;99.90
33717;DHT22;20046;50.746;7.072;2023-02-01T18:13:01;6.70;99.90
33717;DHT22;20046;50.746;7.072;2023-02-01T18:18:50;6.70;99.90
33717;DHT22;20046;50.746;7.072;2023-02-01T18:21:17;6.80;99.90
33717;DHT22;20046;50.746;7.072;2023-02-01T18:23:44;6.80;99.90
33717;DHT22;20046;50.746;7.072;2023-02-01T18:26:11;6.80;99.90
33717;DHT22;20046;50.746;7.072;2023-02-01T18:28:37;6.80;99.90
33717;DHT22;20046;50.746;7.072;2023-02-01T18:31:04;6.80;99.90
33717;DHT22;20046;50.746;7.072;2023-02-01T18:33:31;6.80;99.90
33717;DHT22;20046;50.746;7.072;2023-02-01T18:35:57;6.90;99.90